sensor_id;sensor_type;location;lat;lon;timestamp;P1;durP1;ratioP1;P2;durP2;ratioP2
70414;SDS011;57837;52.064;113.478;2023-02-01T14:12:47;37.95;;;14.05;;
70414;SDS011;57837;52.064;113.478;2023-02-01T14:19:07;40.78;;;18.85;;
70414;SDS011;57837;52.064;113.478;2023-02-01T14:22:46;56.22;;;27.38;;
70414;SDS011;57837;52.064;113.478;2023-02-01T14:26:00;26.23;;;16.30;;
70414;SDS011;57837;52.064;113.478;2023-02-01T14:32:26;32.47;;;22.23;;
70414;SDS011;57837;52.064;113.478;2023-02-01T14:35:35;66.35;;;25.77;;
70414;SDS011;57837;52.064;113.478;2023-02-01T14:38:39;48.93;;;23.60;;
70414;SDS011;57837;52.064;113.478;2023-02-01T14:41:52;107.53;;;42.10;;
70414;SDS011;57837;52.064;113.478;2023-02-01T14:51:34;37.42;;;22.30;;
70414;SDS011;57837;52.064;113.478;2023-02-01T14:55:05;64.00;;;34.53;;
70414;SDS011;57837;52.064;113.478;2023-02-01T15:01:38;38.28;;;20.45;;
70414;SDS011;57837;52.064;113.478;2023-02-01T15:04:53;53.35;;;26.67;;
70414;SDS011;57837;52.064;113.478;2023-02-01T15:08:04;43.50;;;23.55;;
70414;SDS011;57837;52.064;113.478;2023-02-01T15:11:16;57.13;;;21.83;;
70414;SDS011;57837;52.064;113.478;2023-02-01T15:14:19;57.53;;;25.95;;
70414;SDS011;57837;52.064;113.478;2023-02-01T15:17:29;67.88;;;30.92;;
70414;SDS011;57837;52.064;113.478;2023-02-01T15:20:36;130.70;;;53.20;;
70414;SDS011;57837;52.064;113.478;2023-02-01T15:24:09;104.82;;;55.25;;
70414;SDS011;57837;52.064;113.478;2023-02-01T15:27:13;111.00;;;50.47;;
70414;SDS011;57837;52.064;113.478;2023-02-01T15:30:19;73.47;;;33.05;;
70414;SDS011;57837;52.064;113.478;2023-02-01T15:33:23;91.07;;;36.05;;
70414;SDS011;57837;52.064;113.478;2023-02-01T15:36:27;39.25;;;22.10;;
70414;SDS011;57837;52.064;113.478;2023-02-01T15:39:31;123.03;;;54.65;;
70414;SDS011;57837;52.064;113.478;2023-02-01T15:42:41;94.50;;;42.13;;
70414;SDS011;57837;52.064;113.478;2023-02-01T15:45:58;146.00;;;57.35;;
70414;SDS011;57837;52.064;113.478;2023-02-01T15:49:04;194.23;;;79.80;;
70414;SDS011;57837;52.064;113.478;2023-02-01T15:52:24;52.00;;;32.87;;
70414;SDS011;57837;52.064;113.478;2023-02-01T15:55:40;131.82;;;45.17;;
70414;SDS011;57837;52.064;113.478;2023-02-01T15:58:46;132.50;;;51.97;;
70414;SDS011;57837;52.064;113.478;2023-02-01T16:01:53;83.60;;;38.42;;
70414;SDS011;57837;52.064;113.478;2023-02-01T16:04:56;73.20;;;43.72;;
70414;SDS011;57837;52.064;113.478;2023-02-01T16:08:10;102.45;;;54.30;;
70414;SDS011;57837;52.064;113.478;2023-02-01T16:11:24;124.40;;;59.38;;
70414;SDS011;57837;52.064;113.478;2023-02-01T16:14:36;149.97;;;64.73;;
70414;SDS011;57837;52.064;113.478;2023-02-01T16:17:39;73.18;;;44.58;;
70414;SDS011;57837;52.064;113.478;2023-02-01T16:20:43;92.07;;;47.97;;
70414;SDS011;57837;52.064;113.478;2023-02-01T16:23:52;63.43;;;38.07;;
70414;SDS011;57837;52.064;113.478;2023-02-01T16:26:56;86.35;;;44.65;;
70414;SDS011;57837;52.064;113.478;2023-02-01T16:29:59;122.78;;;56.80;;
70414;SDS011;57837;52.064;113.478;2023-02-01T16:33:27;166.85;;;74.20;;
70414;SDS011;57837;52.064;113.478;2023-02-01T16:36:32;90.75;;;56.33;;
70414;SDS011;57837;52.064;113.478;2023-02-01T16:39:37;109.53;;;68.18;;
70414;SDS011;57837;52.064;113.478;2023-02-01T16:42:40;178.88;;;70.00;;
70414;SDS011;57837;52.064;113.478;2023-02-01T16:45:45;128.47;;;64.00;;
70414;SDS011;57837;52.064;113.478;2023-02-01T16:48:56;122.15;;;52.15;;
70414;SDS011;57837;52.064;113.478;2023-02-01T16:52:01;174.77;;;73.03;;
70414;SDS011;57837;52.064;113.478;2023-02-01T16:55:12;187.13;;;83.40;;
70414;SDS011;57837;52.064;113.478;2023-02-01T16:58:19;148.48;;;64.45;;
70414;SDS011;57837;52.064;113.478;2023-02-01T17:01:23;112.50;;;59.50;;
70414;SDS011;57837;52.064;113.478;2023-02-01T17:04:28;163.63;;;67.07;;
70414;SDS011;57837;52.064;113.478;2023-02-01T17:07:31;131.27;;;67.47;;
70414;SDS011;57837;52.064;113.478;2023-02-01T17:10:38;157.48;;;74.90;;
70414;SDS011;57837;52.064;113.478;2023-02-01T17:13:41;217.45;;;80.80;;
70414;SDS011;57837;52.064;113.478;2023-02-01T17:16:47;208.83;;;102.93;;
70414;SDS011;57837;52.064;113.478;2023-02-01T17:19:54;216.63;;;95.57;;
70414;SDS011;57837;52.064;113.478;2023-02-01T17:23:00;159.38;;;74.15;;
70414;SDS011;57837;52.064;113.478;2023-02-01T17:26:04;242.63;;;93.67;;
70414;SDS011;57837;52.064;113.478;2023-02-01T17:29:10;181.52;;;78.13;;
70414;SDS011;57837;52.064;113.478;2023-02-01T17:32:21;102.07;;;53.08;;
70414;SDS011;57837;52.064;113.478;2023-02-01T17:35:26;168.63;;;92.55;;
70414;SDS011;57837;52.064;113.478;2023-02-01T17:38:34;170.77;;;82.93;;
70414;SDS011;57837;52.064;113.478;2023-02-01T17:41:37;182.23;;;79.95;;
70414;SDS011;57837;52.064;113.478;2023-02-01T17:44:40;116.18;;;61.88;;
70414;SDS011;57837;52.064;113.478;2023-02-01T17:47:43;151.30;;;73.50;;
70414;SDS011;57837;52.064;113.478;2023-02-01T17:50:47;114.88;;;71.75;;
70414;SDS011;57837;52.064;113.478;2023-02-01T17:53:54;117.90;;;57.42;;
70414;SDS011;57837;52.064;113.478;2023-02-01T17:56:58;175.87;;;80.80;;
70414;SDS011;57837;52.064;113.478;2023-02-01T18:00:06;222.77;;;85.75;;
70414;SDS011;57837;52.064;113.478;2023-02-01T18:03:26;226.95;;;92.30;;
70414;SDS011;57837;52.064;113.478;2023-02-01T18:06:31;138.27;;;58.85;;
70414;SDS011;57837;52.064;113.478;2023-02-01T18:09:39;157.05;;;71.35;;
70414;SDS011;57837;52.064;113.478;2023-02-01T18:12:43;125.40;;;60.67;;
70414;SDS011;57837;52.064;113.478;2023-02-01T18:15:48;185.10;;;76.35;;
70414;SDS011;57837;52.064;113.478;2023-02-01T18:18:52;130.87;;;69.63;;
70414;SDS011;57837;52.064;113.478;2023-02-01T18:21:55;230.18;;;98.10;;
70414;SDS011;57837;52.064;113.478;2023-02-01T18:25:00;173.88;;;77.40;;
70414;SDS011;57837;52.064;113.478;2023-02-01T18:28:03;187.03;;;72.67;;
70414;SDS011;57837;52.064;113.478;2023-02-01T18:31:10;130.98;;;59.47;;
70414;SDS011;57837;52.064;113.478;2023-02-01T18:34:24;220.68;;;95.15;;
70414;SDS011;57837;52.064;113.478;2023-02-01T18:37:28;139.70;;;63.50;;
70414;SDS011;57837;52.064;113.478;2023-02-01T18:40:55;149.68;;;69.10;;
70414;SDS011;57837;52.064;113.478;2023-02-01T18:43:56;167.05;;;71.28;;
70414;SDS011;57837;52.064;113.478;2023-02-01T18:47:00;218.13;;;87.40;;
70414;SDS011;57837;52.064;113.478;2023-02-01T18:50:03;144.20;;;57.77;;
70414;SDS011;57837;52.064;113.478;2023-02-01T18:53:09;135.00;;;58.70;;
70414;SDS011;57837;52.064;113.478;2023-02-01T18:56:19;203.55;;;85.93;;
70414;SDS011;57837;52.064;113.478;2023-02-01T18:59:21;156.53;;;59.73;;
70414;SDS011;57837;52.064;113.478;2023-02-01T19:02:25;178.55;;;76.78;;
70414;SDS011;57837;52.064;113.478;2023-02-01T19:05:29;169.90;;;65.13;;
70414;SDS011;57837;52.064;113.478;2023-02-01T19:08:33;164.32;;;66.07;;
70414;SDS011;57837;52.064;113.478;2023-02-01T19:11:37;118.72;;;55.00;;
70414;SDS011;57837;52.064;113.478;2023-02-01T19:14:40;101.53;;;47.65;;
70414;SDS011;57837;52.064;113.478;2023-02-01T19:17:46;170.45;;;68.03;;
70414;SDS011;57837;52.064;113.478;2023-02-01T19:20:52;128.87;;;51.60;;
70414;SDS011;57837;52.064;113.478;2023-02-01T19:23:57;114.68;;;50.00;;
70414;SDS011;57837;52.064;113.478;2023-02-01T19:27:00;98.20;;;50.78;;
70414;SDS011;57837;52.064;113.478;2023-02-01T19:30:04;175.97;;;70.90;;
70414;SDS011;57837;52.064;113.478;2023-02-01T19:33:08;111.78;;;53.75;;
70414;SDS011;57837;52.064;113.478;2023-02-01T19:36:12;104.32;;;50.65;;
70414;SDS011;57837;52.064;113.478;2023-02-01T19:39:15;121.82;;;50.63;;
70414;SDS011;57837;52.064;113.478;2023-02-01T19:42:19;61.67;;;36.45;;
70414;SDS011;57837;52.064;113.478;2023-02-01T19:45:22;102.03;;;40.70;;
70414;SDS011;57837;52.064;113.478;2023-02-01T19:48:27;74.28;;;34.22;;
70414;SDS011;57837;52.064;113.478;2023-02-01T19:51:33;94.30;;;39.10;;
70414;SDS011;57837;52.064;113.478;2023-02-01T19:54:37;88.18;;;35.05;;
70414;SDS011;57837;52.064;113.478;2023-02-01T19:57:41;126.20;;;53.30;;
70414;SDS011;57837;52.064;113.478;2023-02-01T20:00:44;122.77;;;39.23;;
70414;SDS011;57837;52.064;113.478;2023-02-01T20:03:48;84.00;;;34.80;;
70414;SDS011;57837;52.064;113.478;2023-02-01T20:06:51;89.57;;;39.00;;
70414;SDS011;57837;52.064;113.478;2023-02-01T20:09:58;138.77;;;49.15;;
70414;SDS011;57837;52.064;113.478;2023-02-01T20:13:02;101.75;;;44.38;;
70414;SDS011;57837;52.064;113.478;2023-02-01T20:16:06;98.45;;;42.22;;
70414;SDS011;57837;52.064;113.478;2023-02-01T20:19:10;86.32;;;39.08;;
70414;SDS011;57837;52.064;113.478;2023-02-01T20:22:14;45.00;;;28.50;;
70414;SDS011;57837;52.064;113.478;2023-02-01T20:25:18;95.13;;;44.40;;
70414;SDS011;57837;52.064;113.478;2023-02-01T20:28:22;74.10;;;37.88;;
70414;SDS011;57837;52.064;113.478;2023-02-01T20:31:25;83.80;;;34.10;;
70414;SDS011;57837;52.064;113.478;2023-02-01T20:34:31;103.25;;;41.28;;
70414;SDS011;57837;52.064;113.478;2023-02-01T20:37:34;123.68;;;41.60;;
70414;SDS011;57837;52.064;113.478;2023-02-01T20:40:39;127.63;;;46.42;;
70414;SDS011;57837;52.064;113.478;2023-02-01T20:43:43;25.52;;;20.27;;
70414;SDS011;57837;52.064;113.478;2023-02-01T20:46:47;63.72;;;29.85;;
70414;SDS011;57837;52.064;113.478;2023-02-01T20:49:50;99.53;;;39.97;;
70414;SDS011;57837;52.064;113.478;2023-02-01T20:52:57;118.87;;;48.63;;
70414;SDS011;57837;52.064;113.478;2023-02-01T20:56:00;198.65;;;71.15;;
70414;SDS011;57837;52.064;113.478;2023-02-01T20:59:04;96.18;;;40.38;;
70414;SDS011;57837;52.064;113.478;2023-02-01T21:02:14;161.47;;;57.97;;
70414;SDS011;57837;52.064;113.478;2023-02-01T21:05:17;70.03;;;32.83;;
70414;SDS011;57837;52.064;113.478;2023-02-01T21:08:20;108.40;;;35.22;;
70414;SDS011;57837;52.064;113.478;2023-02-01T21:11:26;43.85;;;22.20;;
70414;SDS011;57837;52.064;113.478;2023-02-01T21:14:30;80.30;;;38.50;;
70414;SDS011;57837;52.064;113.478;2023-02-01T21:17:34;82.88;;;37.85;;
70414;SDS011;57837;52.064;113.478;2023-02-01T21:20:40;83.22;;;35.35;;
70414;SDS011;57837;52.064;113.478;2023-02-01T21:23:44;88.90;;;34.30;;
70414;SDS011;57837;52.064;113.478;2023-02-01T21:26:47;92.05;;;36.95;;
70414;SDS011;57837;52.064;113.478;2023-02-01T21:29:51;66.05;;;26.23;;
70414;SDS011;57837;52.064;113.478;2023-02-01T21:32:54;68.93;;;31.23;;
70414;SDS011;57837;52.064;113.478;2023-02-01T21:35:58;107.95;;;37.22;;
70414;SDS011;57837;52.064;113.478;2023-02-01T21:39:06;77.22;;;29.48;;
70414;SDS011;57837;52.064;113.478;2023-02-01T21:42:12;78.60;;;38.35;;
70414;SDS011;57837;52.064;113.478;2023-02-01T21:45:15;84.13;;;29.52;;
70414;SDS011;57837;52.064;113.478;2023-02-01T21:48:19;78.75;;;32.15;;
70414;SDS011;57837;52.064;113.478;2023-02-01T21:51:21;78.05;;;35.22;;
70414;SDS011;57837;52.064;113.478;2023-02-01T21:54:25;58.50;;;32.77;;
70414;SDS011;57837;52.064;113.478;2023-02-01T21:57:32;88.30;;;38.60;;
70414;SDS011;57837;52.064;113.478;2023-02-01T22:00:37;82.53;;;33.05;;
70414;SDS011;57837;52.064;113.478;2023-02-01T22:03:40;115.83;;;49.33;;
70414;SDS011;57837;52.064;113.478;2023-02-01T22:06:44;87.00;;;36.58;;
70414;SDS011;57837;52.064;113.478;2023-02-01T22:09:48;111.10;;;52.75;;
70414;SDS011;57837;52.064;113.478;2023-02-01T22:12:51;73.50;;;32.33;;
70414;SDS011;57837;52.064;113.478;2023-02-01T22:15:56;104.60;;;40.63;;
70414;SDS011;57837;52.064;113.478;2023-02-01T22:19:00;63.75;;;30.15;;
70414;SDS011;57837;52.064;113.478;2023-02-01T22:22:04;72.75;;;33.63;;
70414;SDS011;57837;52.064;113.478;2023-02-01T22:25:07;65.43;;;31.97;;
70414;SDS011;57837;52.064;113.478;2023-02-01T22:28:13;89.13;;;44.70;;
70414;SDS011;57837;52.064;113.478;2023-02-01T22:31:33;71.22;;;29.58;;
70414;SDS011;57837;52.064;113.478;2023-02-01T22:34:38;49.50;;;27.40;;
70414;SDS011;57837;52.064;113.478;2023-02-01T22:37:42;75.97;;;27.73;;
70414;SDS011;57837;52.064;113.478;2023-02-01T22:40:59;35.75;;;16.90;;
70414;SDS011;57837;52.064;113.478;2023-02-01T22:44:06;39.83;;;20.90;;
70414;SDS011;57837;52.064;113.478;2023-02-01T22:47:10;38.50;;;22.85;;
70414;SDS011;57837;52.064;113.478;2023-02-01T22:50:13;57.92;;;24.75;;
70414;SDS011;57837;52.064;113.478;2023-02-01T22:53:17;58.22;;;24.58;;
70414;SDS011;57837;52.064;113.478;2023-02-01T22:56:25;102.27;;;33.87;;
70414;SDS011;57837;52.064;113.478;2023-02-01T22:59:29;89.20;;;39.78;;
70414;SDS011;57837;52.064;113.478;2023-02-01T23:02:32;56.50;;;36.25;;
70414;SDS011;57837;52.064;113.478;2023-02-01T23:05:37;74.37;;;32.37;;
70414;SDS011;57837;52.064;113.478;2023-02-01T23:08:42;124.45;;;47.00;;
70414;SDS011;57837;52.064;113.478;2023-02-01T23:11:46;83.18;;;35.92;;
70414;SDS011;57837;52.064;113.478;2023-02-01T23:14:50;66.68;;;26.20;;
70414;SDS011;57837;52.064;113.478;2023-02-01T23:18:10;67.68;;;35.13;;
70414;SDS011;57837;52.064;113.478;2023-02-01T23:21:14;81.00;;;39.08;;
70414;SDS011;57837;52.064;113.478;2023-02-01T23:24:19;103.60;;;48.03;;
70414;SDS011;57837;52.064;113.478;2023-02-01T23:27:23;37.53;;;23.10;;
70414;SDS011;57837;52.064;113.478;2023-02-01T23:30:29;70.30;;;31.20;;
70414;SDS011;57837;52.064;113.478;2023-02-01T23:33:32;47.92;;;27.15;;
70414;SDS011;57837;52.064;113.478;2023-02-01T23:36:36;58.00;;;24.60;;
70414;SDS011;57837;52.064;113.478;2023-02-01T23:39:39;82.35;;;33.13;;
70414;SDS011;57837;52.064;113.478;2023-02-01T23:42:45;149.13;;;52.38;;
70414;SDS011;57837;52.064;113.478;2023-02-01T23:46:09;94.32;;;41.20;;
70414;SDS011;57837;52.064;113.478;2023-02-01T23:49:13;35.47;;;23.55;;
70414;SDS011;57837;52.064;113.478;2023-02-01T23:52:17;63.70;;;33.75;;
70414;SDS011;57837;52.064;113.478;2023-02-01T23:55:24;39.20;;;19.23;;
70414;SDS011;57837;52.064;113.478;2023-02-01T23:58:31;67.37;;;25.40;;
